sensor_id;sensor_type;location;lat;lon;timestamp;pressure;altitude;pressure_sealevel;temperature;humidity
63006;BME280;53704;52.532;6.426;2023-05-27T00:01:13;103048.16;;;7.83;100.00
63006;BME280;53704;52.532;6.426;2023-05-27T00:03:38;103047.41;;;7.65;100.00
63006;BME280;53704;52.532;6.426;2023-05-27T00:06:04;103045.16;;;7.73;100.00
63006;BME280;53704;52.532;6.426;2023-05-27T00:08:30;103045.69;;;7.64;100.00
63006;BME280;53704;52.532;6.426;2023-05-27T00:10:55;103036.00;;;7.61;100.00
63006;BME280;53704;52.532;6.426;2023-05-27T00:13:21;103035.38;;;7.42;100.00
63006;BME280;53704;52.532;6.426;2023-05-27T00:15:46;103038.72;;;7.46;100.00
63006;BME280;53704;52.532;6.426;2023-05-27T00:18:12;103035.25;;;7.59;100.00
63006;BME280;53704;52.532;6.426;2023-05-27T00:20:37;103030.47;;;7.65;100.00
63006;BME280;53704;52.532;6.426;2023-05-27T00:23:02;103029.66;;;7.48;100.00
63006;BME280;53704;52.532;6.426;2023-05-27T00:25:28;103028.31;;;7.55;100.00
63006;BME280;53704;52.532;6.426;2023-05-27T00:27:55;103021.19;;;7.24;100.00
63006;BME280;53704;52.532;6.426;2023-05-27T00:30:21;103021.47;;;7.19;100.00
63006;BME280;53704;52.532;6.426;2023-05-27T00:32:46;103025.50;;;7.42;100.00
63006;BME280;53704;52.532;6.426;2023-05-27T00:35:12;103020.16;;;7.27;100.00
63006;BME280;53704;52.532;6.426;2023-05-27T00:37:38;103030.19;;;7.39;100.00
63006;BME280;53704;52.532;6.426;2023-05-27T00:40:03;103017.50;;;7.11;100.00
63006;BME280;53704;52.532;6.426;2023-05-27T00:42:30;103019.75;;;7.18;100.00
63006;BME280;53704;52.532;6.426;2023-05-27T00:44:56;103023.69;;;7.43;100.00
63006;BME280;53704;52.532;6.426;2023-05-27T00:47:21;103015.34;;;7.17;100.00
63006;BME280;53704;52.532;6.426;2023-05-27T00:49:47;103018.25;;;7.29;100.00
63006;BME280;53704;52.532;6.426;2023-05-27T00:52:13;103020.53;;;7.20;100.00
63006;BME280;53704;52.532;6.426;2023-05-27T00:54:40;103021.56;;;7.34;100.00
63006;BME280;53704;52.532;6.426;2023-05-27T00:57:06;103027.75;;;7.50;100.00
63006;BME280;53704;52.532;6.426;2023-05-27T00:59:31;103011.53;;;7.21;100.00
63006;BME280;53704;52.532;6.426;2023-05-27T01:01:57;103017.41;;;7.12;100.00
63006;BME280;53704;52.532;6.426;2023-05-27T01:04:24;103018.63;;;6.91;100.00
63006;BME280;53704;52.532;6.426;2023-05-27T01:07:10;103014.59;;;6.83;100.00
63006;BME280;53704;52.532;6.426;2023-05-27T01:14:52;103008.63;;;6.94;100.00
63006;BME280;53704;52.532;6.426;2023-05-27T01:17:20;103002.63;;;7.05;100.00
63006;BME280;53704;52.532;6.426;2023-05-27T01:19:48;103001.19;;;6.83;100.00
63006;BME280;53704;52.532;6.426;2023-05-27T01:22:17;103009.13;;;6.69;100.00
63006;BME280;53704;52.532;6.426;2023-05-27T01:24:43;103002.47;;;6.76;100.00
63006;BME280;53704;52.532;6.426;2023-05-27T01:27:10;103003.41;;;6.59;100.00
63006;BME280;53704;52.532;6.426;2023-05-27T01:29:41;103002.28;;;6.47;100.00
63006;BME280;53704;52.532;6.426;2023-05-27T01:34:53;102997.16;;;6.43;100.00
63006;BME280;53704;52.532;6.426;2023-05-27T01:37:21;102997.03;;;6.62;100.00
63006;BME280;53704;52.532;6.426;2023-05-27T01:39:50;103004.91;;;6.31;100.00
63006;BME280;53704;52.532;6.426;2023-05-27T01:42:16;103004.44;;;6.41;100.00
63006;BME280;53704;52.532;6.426;2023-05-27T01:44:42;102997.19;;;6.59;100.00
63006;BME280;53704;52.532;6.426;2023-05-27T01:47:08;102997.16;;;6.43;100.00
63006;BME280;53704;52.532;6.426;2023-05-27T01:49:34;103002.69;;;6.40;100.00
63006;BME280;53704;52.532;6.426;2023-05-27T01:52:00;103005.56;;;6.52;100.00
63006;BME280;53704;52.532;6.426;2023-05-27T01:54:26;103003.22;;;6.46;100.00
63006;BME280;53704;52.532;6.426;2023-05-27T01:56:51;103004.28;;;6.60;100.00
63006;BME280;53704;52.532;6.426;2023-05-27T01:59:17;103004.72;;;6.68;100.00
63006;BME280;53704;52.532;6.426;2023-05-27T02:01:42;103009.13;;;6.69;100.00
63006;BME280;53704;52.532;6.426;2023-05-27T02:04:08;103010.81;;;6.54;100.00
63006;BME280;53704;52.532;6.426;2023-05-27T02:06:33;103000.22;;;6.68;100.00
63006;BME280;53704;52.532;6.426;2023-05-27T02:08:59;103010.16;;;6.66;100.00
63006;BME280;53704;52.532;6.426;2023-05-27T02:11:24;103007.03;;;6.58;100.00
63006;BME280;53704;52.532;6.426;2023-05-27T02:13:51;102996.06;;;6.47;100.00
63006;BME280;53704;52.532;6.426;2023-05-27T02:16:17;102999.97;;;6.24;100.00
63006;BME280;53704;52.532;6.426;2023-05-27T02:18:47;103001.84;;;6.39;100.00
63006;BME280;53704;52.532;6.426;2023-05-27T02:21:14;102995.59;;;6.39;100.00
63006;BME280;53704;52.532;6.426;2023-05-27T02:23:39;102999.75;;;6.44;100.00
63006;BME280;53704;52.532;6.426;2023-05-27T02:26:05;102995.97;;;6.48;100.00
63006;BME280;53704;52.532;6.426;2023-05-27T02:28:30;103005.75;;;6.65;100.00
63006;BME280;53704;52.532;6.426;2023-05-27T02:30:57;103000.19;;;6.52;100.00
63006;BME280;53704;52.532;6.426;2023-05-27T02:33:23;103005.13;;;6.44;100.00
63006;BME280;53704;52.532;6.426;2023-05-27T02:35:48;103000.19;;;6.52;100.00
63006;BME280;53704;52.532;6.426;2023-05-27T02:38:14;102995.13;;;6.64;100.00
63006;BME280;53704;52.532;6.426;2023-05-27T02:40:39;102989.22;;;6.41;100.00
63006;BME280;53704;52.532;6.426;2023-05-27T02:43:05;102998.16;;;6.24;100.00
63006;BME280;53704;52.532;6.426;2023-05-27T02:45:30;103002.03;;;6.19;100.00
63006;BME280;53704;52.532;6.426;2023-05-27T02:47:56;103006.38;;;6.04;100.00
63006;BME280;53704;52.532;6.426;2023-05-27T02:50:21;103004.34;;;6.09;100.00
63006;BME280;53704;52.532;6.426;2023-05-27T02:52:47;103004.78;;;6.17;100.00
63006;BME280;53704;52.532;6.426;2023-05-27T02:55:12;103011.47;;;6.42;100.00
63006;BME280;53704;52.532;6.426;2023-05-27T02:57:38;103000.78;;;6.42;100.00
63006;BME280;53704;52.532;6.426;2023-05-27T03:00:04;102988.00;;;6.31;100.00
63006;BME280;53704;52.532;6.426;2023-05-27T03:02:29;102991.25;;;6.20;100.00
63006;BME280;53704;52.532;6.426;2023-05-27T03:04:57;103002.13;;;6.17;100.00
63006;BME280;53704;52.532;6.426;2023-05-27T03:07:22;102982.88;;;6.10;100.00
63006;BME280;53704;52.532;6.426;2023-05-27T03:09:47;102978.28;;;6.12;100.00
63006;BME280;53704;52.532;6.426;2023-05-27T03:12:13;102973.19;;;6.08;100.00
63006;BME280;53704;52.532;6.426;2023-05-27T03:14:38;102985.34;;;6.13;100.00
63006;BME280;53704;52.532;6.426;2023-05-27T03:17:04;102989.41;;;6.05;100.00
63006;BME280;53704;52.532;6.426;2023-05-27T03:19:29;102986.56;;;6.08;100.00
63006;BME280;53704;52.532;6.426;2023-05-27T03:21:55;102986.56;;;5.90;100.00
63006;BME280;53704;52.532;6.426;2023-05-27T03:24:22;102996.13;;;5.94;100.00
63006;BME280;53704;52.532;6.426;2023-05-27T03:26:48;102997.00;;;5.95;100.00
63006;BME280;53704;52.532;6.426;2023-05-27T03:29:13;102997.78;;;6.14;100.00
63006;BME280;53704;52.532;6.426;2023-05-27T03:31:39;102984.09;;;6.21;100.00
63006;BME280;53704;52.532;6.426;2023-05-27T03:34:04;102986.47;;;6.09;100.00
63006;BME280;53704;52.532;6.426;2023-05-27T03:36:29;102993.13;;;6.18;100.00
63006;BME280;53704;52.532;6.426;2023-05-27T03:38:56;102988.22;;;6.10;100.00
63006;BME280;53704;52.532;6.426;2023-05-27T03:41:21;102984.66;;;6.10;100.00
63006;BME280;53704;52.532;6.426;2023-05-27T03:43:47;102979.63;;;6.04;100.00
63006;BME280;53704;52.532;6.426;2023-05-27T03:46:12;102975.50;;;5.98;100.00
63006;BME280;53704;52.532;6.426;2023-05-27T03:48:38;102981.13;;;5.92;100.00
63006;BME280;53704;52.532;6.426;2023-05-27T03:51:03;102978.38;;;5.93;100.00
63006;BME280;53704;52.532;6.426;2023-05-27T03:53:29;102972.47;;;6.22;100.00
63006;BME280;53704;52.532;6.426;2023-05-27T03:55:55;102965.13;;;6.25;100.00
63006;BME280;53704;52.532;6.426;2023-05-27T03:58:20;102967.16;;;6.04;100.00
63006;BME280;53704;52.532;6.426;2023-05-27T04:00:45;102964.16;;;6.10;100.00
63006;BME280;53704;52.532;6.426;2023-05-27T04:03:13;102964.34;;;6.23;100.00
63006;BME280;53704;52.532;6.426;2023-05-27T04:05:39;102968.75;;;6.40;100.00
63006;BME280;53704;52.532;6.426;2023-05-27T04:08:04;102967.84;;;6.57;100.00
63006;BME280;53704;52.532;6.426;2023-05-27T04:10:30;102962.50;;;6.57;100.00
63006;BME280;53704;52.532;6.426;2023-05-27T04:12:55;102963.41;;;6.40;100.00
63006;BME280;53704;52.532;6.426;2023-05-27T04:15:21;102971.34;;;6.42;100.00
63006;BME280;53704;52.532;6.426;2023-05-27T04:17:46;102975.41;;;6.33;100.00
63006;BME280;53704;52.532;6.426;2023-05-27T04:20:12;102969.56;;;6.42;100.00
63006;BME280;53704;52.532;6.426;2023-05-27T04:22:41;102965.16;;;6.41;100.00
63006;BME280;53704;52.532;6.426;2023-05-27T04:25:09;102967.88;;;6.24;100.00
63006;BME280;53704;52.532;6.426;2023-05-27T04:27:35;102960.94;;;6.20;100.00
63006;BME280;53704;52.532;6.426;2023-05-27T04:30:05;102968.00;;;6.38;100.00
63006;BME280;53704;52.532;6.426;2023-05-27T04:32:30;102968.94;;;6.37;100.00
63006;BME280;53704;52.532;6.426;2023-05-27T04:35:06;102967.47;;;6.31;100.00
63006;BME280;53704;52.532;6.426;2023-05-27T04:37:37;102964.22;;;6.42;100.00
63006;BME280;53704;52.532;6.426;2023-05-27T04:40:06;102962.75;;;6.52;100.00
63006;BME280;53704;52.532;6.426;2023-05-27T04:42:33;102965.47;;;6.35;100.00
63006;BME280;53704;52.532;6.426;2023-05-27T04:45:02;102958.47;;;6.32;100.00
63006;BME280;53704;52.532;6.426;2023-05-27T04:47:28;102954.94;;;6.32;100.00
63006;BME280;53704;52.532;6.426;2023-05-27T04:49:55;102964.22;;;6.42;100.00
63006;BME280;53704;52.532;6.426;2023-05-27T04:52:21;102962.75;;;6.52;100.00
63006;BME280;53704;52.532;6.426;2023-05-27T04:54:48;102968.97;;;6.69;100.00
63006;BME280;53704;52.532;6.426;2023-05-27T04:57:13;102961.13;;;6.66;100.00
63006;BME280;53704;52.532;6.426;2023-05-27T04:59:47;102957.13;;;6.73;100.00
63006;BME280;53704;52.532;6.426;2023-05-27T05:02:44;102962.81;;;6.83;100.00
63006;BME280;53704;52.532;6.426;2023-05-27T05:05:12;102963.19;;;6.93;100.00
63006;BME280;53704;52.532;6.426;2023-05-27T05:07:40;102959.38;;;6.97;100.00
63006;BME280;53704;52.532;6.426;2023-05-27T05:10:10;102960.03;;;7.00;100.00
63006;BME280;53704;52.532;6.426;2023-05-27T05:12:36;102960.75;;;7.04;100.00
63006;BME280;53704;52.532;6.426;2023-05-27T05:15:03;102956.13;;;7.22;100.00
63006;BME280;53704;52.532;6.426;2023-05-27T05:17:28;102957.06;;;7.37;100.00
63006;BME280;53704;52.532;6.426;2023-05-27T05:19:54;102951.88;;;7.34;100.00
63006;BME280;53704;52.532;6.426;2023-05-27T05:22:19;102956.38;;;7.33;100.00
63006;BME280;53704;52.532;6.426;2023-05-27T05:24:48;102949.25;;;7.48;100.00
63006;BME280;53704;52.532;6.426;2023-05-27T05:27:13;102943.34;;;7.57;100.00
63006;BME280;53704;52.532;6.426;2023-05-27T05:29:38;102949.69;;;7.71;100.00
63006;BME280;53704;52.532;6.426;2023-05-27T05:32:04;102942.84;;;7.65;100.00
63006;BME280;53704;52.532;6.426;2023-05-27T05:34:30;102934.16;;;7.76;100.00
63006;BME280;53704;52.532;6.426;2023-05-27T05:36:55;102929.88;;;7.88;100.00
63006;BME280;53704;52.532;6.426;2023-05-27T05:39:21;102939.84;;;8.00;100.00
63006;BME280;53704;52.532;6.426;2023-05-27T05:41:47;102939.44;;;8.06;100.00
63006;BME280;53704;52.532;6.426;2023-05-27T05:44:12;102933.03;;;8.09;100.00
63006;BME280;53704;52.532;6.426;2023-05-27T05:46:38;102940.81;;;8.13;100.00
63006;BME280;53704;52.532;6.426;2023-05-27T05:49:04;102931.44;;;8.21;100.00
63006;BME280;53704;52.532;6.426;2023-05-27T05:51:30;102940.31;;;8.36;100.00
63006;BME280;53704;52.532;6.426;2023-05-27T05:53:59;102942.53;;;8.43;100.00
63006;BME280;53704;52.532;6.426;2023-05-27T05:56:24;102946.44;;;8.52;100.00
63006;BME280;53704;52.532;6.426;2023-05-27T05:58:51;102952.50;;;8.56;100.00
63006;BME280;53704;52.532;6.426;2023-05-27T06:01:16;102953.44;;;8.69;100.00
63006;BME280;53704;52.532;6.426;2023-05-27T06:03:42;102942.09;;;8.78;100.00
63006;BME280;53704;52.532;6.426;2023-05-27T06:06:07;102950.69;;;8.83;100.00
63006;BME280;53704;52.532;6.426;2023-05-27T06:08:33;102944.28;;;8.86;100.00
63006;BME280;53704;52.532;6.426;2023-05-27T06:10:59;102947.66;;;9.02;100.00
63006;BME280;53704;52.532;6.426;2023-05-27T06:13:24;102938.25;;;9.10;100.00
63006;BME280;53704;52.532;6.426;2023-05-27T06:15:49;102935.78;;;9.19;100.00
63006;BME280;53704;52.532;6.426;2023-05-27T06:18:15;102937.72;;;9.17;100.00
63006;BME280;53704;52.532;6.426;2023-05-27T06:20:40;102931.94;;;9.23;100.00
63006;BME280;53704;52.532;6.426;2023-05-27T06:23:06;102924.00;;;9.35;100.00
63006;BME280;53704;52.532;6.426;2023-05-27T06:25:32;102921.88;;;9.53;100.00
63006;BME280;53704;52.532;6.426;2023-05-27T06:27:57;102922.84;;;9.52;100.00
63006;BME280;53704;52.532;6.426;2023-05-27T06:30:23;102921.47;;;9.72;100.00
63006;BME280;53704;52.532;6.426;2023-05-27T06:32:48;102909.09;;;9.69;100.00
63006;BME280;53704;52.532;6.426;2023-05-27T06:35:14;102916.09;;;9.85;100.00
63006;BME280;53704;52.532;6.426;2023-05-27T06:37:39;102910.16;;;9.92;100.00
63006;BME280;53704;52.532;6.426;2023-05-27T06:40:05;102909.53;;;10.02;100.00
63006;BME280;53704;52.532;6.426;2023-05-27T06:42:30;102907.47;;;10.05;100.00
63006;BME280;53704;52.532;6.426;2023-05-27T06:44:56;102902.94;;;10.19;100.00
63006;BME280;53704;52.532;6.426;2023-05-27T06:47:21;102905.72;;;10.30;100.00
63006;BME280;53704;52.532;6.426;2023-05-27T06:49:47;102907.78;;;10.39;100.00
63006;BME280;53704;52.532;6.426;2023-05-27T06:52:12;102902.63;;;10.60;100.00
63006;BME280;53704;52.532;6.426;2023-05-27T06:54:38;102901.13;;;10.56;100.00
63006;BME280;53704;52.532;6.426;2023-05-27T06:57:03;102902.41;;;10.63;100.00
63006;BME280;53704;52.532;6.426;2023-05-27T06:59:29;102899.44;;;10.79;100.00
63006;BME280;53704;52.532;6.426;2023-05-27T07:01:54;102892.31;;;10.78;100.00
63006;BME280;53704;52.532;6.426;2023-05-27T07:04:22;102890.44;;;10.92;100.00
63006;BME280;53704;52.532;6.426;2023-05-27T07:06:47;102890.75;;;11.11;100.00
63006;BME280;53704;52.532;6.426;2023-05-27T07:09:13;102894.47;;;11.21;100.00
63006;BME280;53704;52.532;6.426;2023-05-27T07:11:39;102882.63;;;11.35;100.00
63006;BME280;53704;52.532;6.426;2023-05-27T07:14:05;102885.69;;;11.31;100.00
63006;BME280;53704;52.532;6.426;2023-05-27T07:16:30;102885.81;;;11.40;100.00
63006;BME280;53704;52.532;6.426;2023-05-27T07:18:56;102878.84;;;11.61;100.00
63006;BME280;53704;52.532;6.426;2023-05-27T07:21:21;102876.94;;;11.74;100.00
63006;BME280;53704;52.532;6.426;2023-05-27T07:23:47;102872.25;;;11.76;100.00
63006;BME280;53704;52.532;6.426;2023-05-27T07:26:12;102871.69;;;12.06;100.00
63006;BME280;53704;52.532;6.426;2023-05-27T07:28:37;102860.63;;;12.09;100.00
63006;BME280;53704;52.532;6.426;2023-05-27T07:31:04;102871.06;;;12.14;100.00
63006;BME280;53704;52.532;6.426;2023-05-27T07:33:30;102865.66;;;12.14;100.00
63006;BME280;53704;52.532;6.426;2023-05-27T07:35:55;102859.28;;;12.15;100.00
63006;BME280;53704;52.532;6.426;2023-05-27T07:38:20;102860.56;;;12.55;100.00
63006;BME280;53704;52.532;6.426;2023-05-27T07:40:46;102852.97;;;12.48;100.00
63006;BME280;53704;52.532;6.426;2023-05-27T07:43:11;102854.19;;;12.56;100.00
63006;BME280;53704;52.532;6.426;2023-05-27T07:45:37;102855.44;;;12.73;100.00
63006;BME280;53704;52.532;6.426;2023-05-27T07:48:02;102848.97;;;12.96;100.00
63006;BME280;53704;52.532;6.426;2023-05-27T07:50:28;102846.50;;;13.05;100.00
63006;BME280;53704;52.532;6.426;2023-05-27T07:52:53;102843.91;;;13.03;100.00
63006;BME280;53704;52.532;6.426;2023-05-27T07:55:19;102840.63;;;13.42;100.00
63006;BME280;53704;52.532;6.426;2023-05-27T07:57:44;102843.59;;;13.38;100.00
63006;BME280;53704;52.532;6.426;2023-05-27T08:00:10;102844.50;;;13.49;100.00
63006;BME280;53704;52.532;6.426;2023-05-27T08:02:36;102837.00;;;13.83;100.00
63006;BME280;53704;52.532;6.426;2023-05-27T08:05:02;102840.47;;;13.95;100.00
63006;BME280;53704;52.532;6.426;2023-05-27T08:07:29;102840.94;;;14.20;100.00
63006;BME280;53704;52.532;6.426;2023-05-27T08:09:55;102828.00;;;14.23;100.00
63006;BME280;53704;52.532;6.426;2023-05-27T08:12:21;102826.78;;;13.97;100.00
63006;BME280;53704;52.532;6.426;2023-05-27T08:14:47;102825.72;;;14.28;100.00
63006;BME280;53704;52.532;6.426;2023-05-27T08:17:13;102823.75;;;14.40;100.00
63006;BME280;53704;52.532;6.426;2023-05-27T08:19:39;102813.94;;;14.78;100.00
63006;BME280;53704;52.532;6.426;2023-05-27T08:22:04;102816.97;;;14.95;100.00
63006;BME280;53704;52.532;6.426;2023-05-27T08:24:34;102811.78;;;14.53;100.00
63006;BME280;53704;52.532;6.426;2023-05-27T08:27:00;102810.22;;;14.99;100.00
63006;BME280;53704;52.532;6.426;2023-05-27T08:29:26;102817.03;;;15.32;100.00
63006;BME280;53704;52.532;6.426;2023-05-27T08:31:53;102810.38;;;14.88;100.00
63006;BME280;53704;52.532;6.426;2023-05-27T08:34:18;102811.22;;;15.17;100.00
63006;BME280;53704;52.532;6.426;2023-05-27T08:36:44;102802.25;;;15.54;100.00
63006;BME280;53704;52.532;6.426;2023-05-27T08:39:09;102809.19;;;15.29;100.00
63006;BME280;53704;52.532;6.426;2023-05-27T08:41:36;102789.19;;;16.05;100.00
63006;BME280;53704;52.532;6.426;2023-05-27T08:44:02;102789.84;;;15.89;100.00
63006;BME280;53704;52.532;6.426;2023-05-27T08:46:29;102787.75;;;15.73;100.00
63006;BME280;53704;52.532;6.426;2023-05-27T08:48:55;102779.91;;;15.61;100.00
63006;BME280;53704;52.532;6.426;2023-05-27T08:51:23;102780.44;;;16.66;100.00
63006;BME280;53704;52.532;6.426;2023-05-27T08:53:49;102780.44;;;16.66;100.00
63006;BME280;53704;52.532;6.426;2023-05-27T08:56:16;102775.78;;;16.40;100.00
63006;BME280;53704;52.532;6.426;2023-05-27T08:58:43;102769.72;;;16.10;100.00
63006;BME280;53704;52.532;6.426;2023-05-27T09:01:09;102765.97;;;16.65;100.00
63006;BME280;53704;52.532;6.426;2023-05-27T09:03:35;102762.03;;;16.23;100.00
63006;BME280;53704;52.532;6.426;2023-05-27T09:06:02;102765.75;;;17.21;100.00
63006;BME280;53704;52.532;6.426;2023-05-27T09:08:30;102760.16;;;16.78;100.00
63006;BME280;53704;52.532;6.426;2023-05-27T09:10:55;102753.50;;;16.54;100.00
63006;BME280;53704;52.532;6.426;2023-05-27T09:13:31;102748.81;;;16.64;100.00
63006;BME280;53704;52.532;6.426;2023-05-27T09:16:04;102748.63;;;16.84;100.00
63006;BME280;53704;52.532;6.426;2023-05-27T09:18:31;102746.53;;;17.57;100.00
63006;BME280;53704;52.532;6.426;2023-05-27T09:20:58;102741.22;;;17.89;100.00
63006;BME280;53704;52.532;6.426;2023-05-27T09:23:23;102744.91;;;18.31;100.00
63006;BME280;53704;52.532;6.426;2023-05-27T09:25:49;102746.97;;;18.46;99.94
63006;BME280;53704;52.532;6.426;2023-05-27T09:28:22;102742.03;;;18.49;96.22
63006;BME280;53704;52.532;6.426;2023-05-27T09:30:59;102740.25;;;17.99;100.00
63006;BME280;53704;52.532;6.426;2023-05-27T09:33:26;102734.94;;;17.89;95.60
63006;BME280;53704;52.532;6.426;2023-05-27T09:35:51;102735.03;;;18.30;93.27
63006;BME280;53704;52.532;6.426;2023-05-27T09:38:17;102723.53;;;19.25;91.94
63006;BME280;53704;52.532;6.426;2023-05-27T09:40:45;102735.38;;;19.01;88.16
63006;BME280;53704;52.532;6.426;2023-05-27T09:43:14;102730.94;;;18.84;91.96
63006;BME280;53704;52.532;6.426;2023-05-27T09:45:42;102723.28;;;19.43;83.66
63006;BME280;53704;52.532;6.426;2023-05-27T09:48:12;102726.09;;;19.19;84.33
63006;BME280;53704;52.532;6.426;2023-05-27T09:50:47;102730.59;;;18.95;86.68
63006;BME280;53704;52.532;6.426;2023-05-27T09:53:14;102727.78;;;19.20;86.57
63006;BME280;53704;52.532;6.426;2023-05-27T09:55:40;102729.06;;;18.84;84.88
63006;BME280;53704;52.532;6.426;2023-05-27T09:58:09;102724.59;;;19.56;83.32
63006;BME280;53704;52.532;6.426;2023-05-27T10:00:36;102718.91;;;19.65;79.19
63006;BME280;53704;52.532;6.426;2023-05-27T10:03:02;102712.63;;;19.96;79.93
63006;BME280;53704;52.532;6.426;2023-05-27T10:05:28;102711.25;;;19.29;83.37
63006;BME280;53704;52.532;6.426;2023-05-27T10:07:55;102705.22;;;20.51;79.09
63006;BME280;53704;52.532;6.426;2023-05-27T10:10:21;102706.22;;;20.12;79.40
63006;BME280;53704;52.532;6.426;2023-05-27T10:12:49;102711.72;;;20.50;75.41
63006;BME280;53704;52.532;6.426;2023-05-27T10:15:45;102694.66;;;20.48;70.05
63006;BME280;53704;52.532;6.426;2023-05-27T10:18:22;102689.50;;;20.68;69.54
63006;BME280;53704;52.532;6.426;2023-05-27T10:20:49;102692.00;;;20.40;71.71
63006;BME280;53704;52.532;6.426;2023-05-27T10:23:15;102689.56;;;20.83;69.29
63006;BME280;53704;52.532;6.426;2023-05-27T10:25:49;102691.75;;;21.18;68.58
63006;BME280;53704;52.532;6.426;2023-05-27T10:28:33;102693.22;;;20.90;69.59
63006;BME280;53704;52.532;6.426;2023-05-27T10:31:04;102691.06;;;21.01;68.03
63006;BME280;53704;52.532;6.426;2023-05-27T10:33:34;102683.06;;;20.00;68.03
63006;BME280;53704;52.532;6.426;2023-05-27T10:36:04;102679.94;;;21.02;70.45
63006;BME280;53704;52.532;6.426;2023-05-27T10:38:32;102667.78;;;21.05;64.59
63006;BME280;53704;52.532;6.426;2023-05-27T10:40:59;102663.66;;;21.60;62.80
63006;BME280;53704;52.532;6.426;2023-05-27T10:43:29;102662.28;;;21.05;65.73
63006;BME280;53704;52.532;6.426;2023-05-27T10:46:08;102664.41;;;20.27;66.85
63006;BME280;53704;52.532;6.426;2023-05-27T10:48:34;102657.66;;;21.05;65.43
63006;BME280;53704;52.532;6.426;2023-05-27T10:50:59;102657.56;;;20.99;64.74
63006;BME280;53704;52.532;6.426;2023-05-27T10:53:26;102655.56;;;21.74;63.39
63006;BME280;53704;52.532;6.426;2023-05-27T10:55:52;102653.69;;;21.74;61.27
63006;BME280;53704;52.532;6.426;2023-05-27T10:58:18;102633.00;;;23.00;57.08
63006;BME280;53704;52.532;6.426;2023-05-27T11:00:47;102646.13;;;22.69;57.37
63006;BME280;53704;52.532;6.426;2023-05-27T11:03:23;102645.09;;;21.99;59.04
63006;BME280;53704;52.532;6.426;2023-05-27T11:06:05;102633.88;;;22.44;59.88
63006;BME280;53704;52.532;6.426;2023-05-27T11:08:34;102636.41;;;21.95;59.11
63006;BME280;53704;52.532;6.426;2023-05-27T11:11:06;102633.25;;;21.77;55.42
63006;BME280;53704;52.532;6.426;2023-05-27T11:13:38;102624.91;;;22.56;57.09
63006;BME280;53704;52.532;6.426;2023-05-27T11:16:06;102624.56;;;21.95;53.79
63006;BME280;53704;52.532;6.426;2023-05-27T11:21:00;102615.69;;;23.47;51.58
63006;BME280;53704;52.532;6.426;2023-05-27T11:23:44;102607.91;;;22.68;54.58
63006;BME280;53704;52.532;6.426;2023-05-27T11:26:18;102606.94;;;24.12;50.73
63006;BME280;53704;52.532;6.426;2023-05-27T11:31:13;102605.69;;;23.33;54.09
63006;BME280;53704;52.532;6.426;2023-05-27T11:33:41;102604.16;;;23.17;52.62
63006;BME280;53704;52.532;6.426;2023-05-27T11:36:10;102600.00;;;22.58;48.09
63006;BME280;53704;52.532;6.426;2023-05-27T11:38:57;102591.00;;;23.74;51.24
63006;BME280;53704;52.532;6.426;2023-05-27T11:41:25;102590.19;;;24.20;50.43
63006;BME280;53704;52.532;6.426;2023-05-27T11:46:34;102588.50;;;24.13;48.86
63006;BME280;53704;52.532;6.426;2023-05-27T11:48:59;102579.56;;;25.23;44.06
63006;BME280;53704;52.532;6.426;2023-05-27T11:51:33;102575.28;;;23.41;45.75
63006;BME280;53704;52.532;6.426;2023-05-27T11:53:59;102572.00;;;24.26;44.80
63006;BME280;53704;52.532;6.426;2023-05-27T11:56:28;102565.69;;;24.98;44.29
63006;BME280;53704;52.532;6.426;2023-05-27T11:58:56;102560.13;;;24.59;46.68
63006;BME280;53704;52.532;6.426;2023-05-27T12:01:22;102560.38;;;25.03;45.44
63006;BME280;53704;52.532;6.426;2023-05-27T12:03:48;102557.97;;;23.61;43.53
63006;BME280;53704;52.532;6.426;2023-05-27T12:06:13;102549.88;;;23.26;46.68
63006;BME280;53704;52.532;6.426;2023-05-27T12:08:41;102548.00;;;24.67;45.94
63006;BME280;53704;52.532;6.426;2023-05-27T12:11:07;102531.09;;;25.08;45.31
63006;BME280;53704;52.532;6.426;2023-05-27T12:13:33;102539.44;;;25.40;43.50
63006;BME280;53704;52.532;6.426;2023-05-27T12:15:58;102539.06;;;25.23;43.41
63006;BME280;53704;52.532;6.426;2023-05-27T12:18:24;102520.63;;;25.31;40.47
63006;BME280;53704;52.532;6.426;2023-05-27T12:20:50;102531.03;;;25.86;40.96
63006;BME280;53704;52.532;6.426;2023-05-27T12:23:15;102526.31;;;23.92;45.61
63006;BME280;53704;52.532;6.426;2023-05-27T12:25:41;102524.09;;;25.76;42.21
63006;BME280;53704;52.532;6.426;2023-05-27T12:28:08;102508.31;;;25.58;39.86
63006;BME280;53704;52.532;6.426;2023-05-27T12:30:34;102507.88;;;26.12;41.14
63006;BME280;53704;52.532;6.426;2023-05-27T12:33:03;102506.88;;;26.99;39.15
63006;BME280;53704;52.532;6.426;2023-05-27T12:35:29;102504.53;;;26.10;40.62
63006;BME280;53704;52.532;6.426;2023-05-27T12:37:55;102505.91;;;25.43;40.82
63006;BME280;53704;52.532;6.426;2023-05-27T12:40:20;102495.81;;;25.31;41.93
63006;BME280;53704;52.532;6.426;2023-05-27T12:42:46;102496.09;;;26.79;39.77
63006;BME280;53704;52.532;6.426;2023-05-27T12:45:11;102498.91;;;27.21;37.45
63006;BME280;53704;52.532;6.426;2023-05-27T12:47:37;102494.06;;;25.36;39.24
63006;BME280;53704;52.532;6.426;2023-05-27T12:50:03;102493.31;;;25.54;39.71
63006;BME280;53704;52.532;6.426;2023-05-27T12:52:29;102485.31;;;25.71;39.67
63006;BME280;53704;52.532;6.426;2023-05-27T12:54:55;102481.09;;;27.05;39.61
63006;BME280;53704;52.532;6.426;2023-05-27T12:57:20;102485.50;;;26.76;38.63
63006;BME280;53704;52.532;6.426;2023-05-27T12:59:46;102487.50;;;26.13;38.49
63006;BME280;53704;52.532;6.426;2023-05-27T13:02:11;102479.34;;;25.99;38.98